Briefing drone pour Sancoins

Rechercher une autre localisation

Conditions de vol :


Nous sommes le : Dimanche 27 septembre 2020
Il est 06:26 UTC (08:26 LT)

Lever de soleil : 05:15 UTC (07:15 LT)
Coucher de soleil : 18:02 UTC (20:02 LT)

Météo

L'essentiel des conditions de vol

VIGILANCE MÉTÉO FRANCE - Cher (18)
Vigilance Jaune : Vent violent / Pluie-inondation
CARTE TEMSI
CARTES DES FRONTS
METAR de LFQG
LFQG 270600Z AUTO 26012KT 9999 -RA OVC007/// ///TCU 09/08 Q1007

Date d'émission: 27/09/2020
Heure d'émission: 06:00 UTC
Vent: 260° pour 12 KT (22 km/h)
Visibilité horizontale: > 10 km
Plafond :
- Couvert à 700ft (213m)
Température: 9 °C
Point de rosée: 8 °C
Humidité: 93%
Pression (QNH): 1007 hPa
Conditions: Faible pluie
Prévision 24h pour Nevers (16 km)
Vent : 348° pour 2 KT (6 km/h)
Temperature Maxi: 8 °C
Temperature Min: 8 °C
Humidité : 96%
Condition : Nuageux



Warning: count(): Parameter must be an array or an object that implements Countable in /homepages/6/d509196549/htdocs/droneoxygene/briefing.php on line 743
WEBCAM POUR SANCOINS

Réglementation

Voler en sécurité

CARTES AERONAUTIQUE 1/500.000
CARTES VAC (LFQG)
SUP AIP




Chargement des AIP...
NOTAM (SANCOINS + Terrain à proximité / FIR )




Chargement des NOTAMS...
CONTACT PREFECTURE 18


Avertissement : Les données mises à disposition sont indicatives. Oxygène Drone ne pourra être tenu responsable de dégâts causés aux biens et aux personnes.